Time;durP1;ratioP1;P1;durP2;ratioP2;P2;SDS_P1;SDS_P2;PMS_P1;PMS_P2;Temp;Humidity;BMP_temperature;BMP_pressure;BME280_temperature;BME280_humidity;BME280_pressure;Samples;Min_cycle;Max_cycle;Signal;HPM_P1;HPM_P2
2022/06/21 00:01:15;;;;;;;2.35;1.05;;;;;;;17.65;63.08;99665.91;5032572;28;20029;-73
2022/06/21 00:03:41;;;;;;;1.27;0.90;;;;;;;17.36;63.60;99683.66;5044402;28;20389;-75
2022/06/21 00:06:07;;;;;;;1.83;1.10;;;;;;;17.16;64.10;99673.38;5050390;28;20033;-75
2022/06/21 00:08:35;;;;;;;1.75;0.80;;;;;;;17.07;64.00;99673.91;5048827;28;20040;-75
2022/06/21 00:11:01;;;;;;;1.92;0.80;;;;;;;17.27;63.51;99673.56;5017420;28;20037;-75
2022/06/21 00:13:32;;;;;;;1.27;0.85;;;;;;;17.16;63.87;99668.06;5018614;28;20469;-76
2022/06/21 00:16:05;;;;;;;2.25;1.15;;;;;;;17.27;63.39;99670.06;5031288;28;20044;-75
2022/06/21 00:18:32;;;;;;;1.77;0.85;;;;;;;17.26;63.46;99663.88;5036497;28;20025;-73
2022/06/21 00:20:58;;;;;;;2.10;0.88;;;;;;;17.26;63.61;99666.56;5041319;28;20062;-74
2022/06/21 00:23:26;;;;;;;3.15;0.93;;;;;;;17.18;63.69;99660.84;5034245;28;20037;-73
2022/06/21 00:25:52;;;;;;;0.90;0.65;;;;;;;17.13;63.72;99657.63;5033476;28;20461;-73
2022/06/21 00:28:19;;;;;;;4.25;1.15;;;;;;;17.02;63.97;99654.75;5045781;28;20056;-72
2022/06/21 00:30:47;;;;;;;2.30;0.80;;;;;;;16.88;64.31;99659.09;5037208;28;20115;-73
2022/06/21 00:33:14;;;;;;;2.80;1.10;;;;;;;16.88;64.46;99659.09;5016836;28;20083;-74
2022/06/21 00:35:42;;;;;;;1.45;0.98;;;;;;;16.73;64.90;99647.56;5036569;28;20496;-74
2022/06/21 00:38:25;;;;;;;3.25;1.30;;;;;;;16.53;65.86;99647.84;5034902;28;20040;-75
2022/06/21 00:40:50;;;;;;;;;;;;;;;16.41;66.31;99649.41;5049847;28;20031;-76
2022/06/21 00:43:26;;;;;;;2.07;0.90;;;;;;;16.67;65.33;99647.88;5018000;28;19917;-76
2022/06/21 00:45:52;;;;;;;1.63;0.93;;;;;;;16.70;65.24;99650.38;5036045;28;20262;-76
2022/06/21 00:48:32;;;;;;;1.70;1.08;;;;;;;16.82;64.96;99646.16;5034098;28;20033;-75
2022/06/21 00:51:07;;;;;;;3.10;1.10;;;;;;;16.80;64.78;99650.72;5039206;28;20024;-75
2022/06/21 00:53:40;;;;;;;5.18;1.40;;;;;;;16.63;65.27;99638.41;5018084;28;20049;-74
2022/06/21 00:56:34;;;;;;;1.52;0.90;;;;;;;16.65;65.35;99644.47;5029698;28;20033;-75
2022/06/21 00:59:16;;;;;;;2.80;1.20;;;;;;;16.66;65.39;99645.34;5038843;28;20044;-75
2022/06/21 01:01:42;;;;;;;2.35;1.15;;;;;;;16.85;64.61;99643.34;5048707;28;20094;-75
2022/06/21 01:04:24;;;;;;;3.47;1.10;;;;;;;16.77;65.07;99639.44;5034521;28;20033;-74
2022/06/21 01:06:53;;;;;;;2.40;1.17;;;;;;;16.78;64.92;99636.69;5030402;28;20037;-75
2022/06/21 01:09:36;;;;;;;3.25;1.00;;;;;;;16.86;64.77;99642.38;5030971;28;20477;-74
2022/06/21 01:12:17;;;;;;;1.63;1.10;;;;;;;17.01;64.47;99642.44;5051069;28;20057;-75
2022/06/21 01:14:49;;;;;;;2.35;1.20;;;;;;;17.02;64.63;99645.00;5048172;28;20033;-76
2022/06/21 01:17:17;;;;;;;3.50;1.33;;;;;;;17.12;64.32;99645.31;5050146;28;20083;-74
2022/06/21 01:19:55;;;;;;;2.45;1.25;;;;;;;16.95;64.71;99649.78;5038423;28;20378;-74
2022/06/21 01:22:52;;;;;;;2.22;1.30;;;;;;;16.61;66.06;99636.81;5017742;28;20052;-74
2022/06/21 01:25:46;;;;;;;1.55;1.15;;;;;;;16.51;66.38;99642.63;5000243;28;20049;-73
2022/06/21 01:28:11;;;;;;;;;;;;;;;16.43;67.08;99644.84;5034816;28;20108;-75
2022/06/21 01:30:37;;;;;;;4.13;1.42;;;;;;;16.60;66.01;99635.09;5014887;28;20062;-75
2022/06/21 01:33:04;;;;;;;5.30;1.58;;;;;;;16.50;66.32;99635.59;5037017;28;20114;-75
2022/06/21 01:35:44;;;;;;;4.20;1.77;;;;;;;16.39;66.92;99638.03;5047239;28;20029;-75
2022/06/21 01:38:14;;;;;;;5.03;1.48;;;;;;;16.65;66.05;99638.31;5018591;28;20366;-74
2022/06/21 01:40:44;;;;;;;3.88;1.40;;;;;;;16.54;65.81;99632.78;5022481;28;20044;-75
2022/06/21 01:43:15;;;;;;;2.17;1.33;;;;;;;16.27;66.80;99634.28;5045882;28;20036;-75
2022/06/21 01:45:48;;;;;;;2.63;1.20;;;;;;;16.15;66.68;99628.81;5047287;28;20037;-75
2022/06/21 01:48:21;;;;;;;1.85;1.10;;;;;;;16.39;66.06;99629.22;5045863;28;20021;-76
2022/06/21 01:50:48;;;;;;;;;;;;;;;16.41;65.86;99636.16;5046210;28;20110;-76
2022/06/21 01:53:16;;;;;;;2.13;1.02;;;;;;;16.18;65.92;99624.19;5038770;28;19964;-77
2022/06/21 01:55:45;;;;;;;1.70;1.08;;;;;;;16.23;66.07;99631.88;5038323;28;20033;-77
2022/06/21 01:58:17;;;;;;;2.17;0.90;;;;;;;15.96;66.69;99629.88;5040230;28;20049;-76
2022/06/21 02:00:49;;;;;;;1.65;0.98;;;;;;;15.74;67.58;99638.13;5033651;28;20035;-77
2022/06/21 02:03:19;;;;;;;2.43;0.83;;;;;;;16.01;66.84;99641.06;5049362;28;20061;-77
2022/06/21 02:05:50;;;;;;;3.05;1.10;;;;;;;16.05;66.79;99640.88;5021519;28;20025;-75
2022/06/21 02:08:19;;;;;;;3.00;0.98;;;;;;;15.86;66.96;99647.19;5020437;28;20036;-77
2022/06/21 02:10:52;;;;;;;2.15;0.90;;;;;;;16.00;67.03;99639.34;5039851;28;20036;-76
2022/06/21 02:13:20;;;;;;;;;;;;;;;15.91;67.65;99639.84;5019504;28;20033;-77
2022/06/21 02:16:20;;;;;;;2.75;1.00;;;;;;;16.27;66.64;99644.03;5038465;28;19921;-78
2022/06/21 02:18:50;;;;;;;2.45;0.90;;;;;;;16.21;66.21;99639.94;5040426;28;20049;-79
2022/06/21 02:21:34;;;;;;;3.17;1.00;;;;;;;16.27;66.52;99630.78;5019663;28;20021;-77
2022/06/21 02:24:01;;;;;;;2.17;0.88;;;;;;;16.25;66.05;99630.03;5054075;28;20035;-79
2022/06/21 02:26:30;;;;;;;3.88;1.30;;;;;;;16.24;66.28;99637.13;5029033;28;20483;-77
2022/06/21 02:28:56;;;;;;;1.73;1.10;;;;;;;16.19;66.61;99636.50;5041442;28;20380;-78
2022/06/21 02:31:25;;;;;;;2.28;1.20;;;;;;;16.13;66.87;99639.50;5038242;28;20021;-76
2022/06/21 02:33:53;;;;;;;2.50;1.05;;;;;;;16.15;66.96;99637.63;5050446;28;20065;-76
2022/06/21 02:36:30;;;;;;;2.17;1.10;;;;;;;16.19;66.88;99630.34;5047738;28;20461;-76
2022/06/21 02:39:00;;;;;;;3.95;1.30;;;;;;;16.16;66.90;99628.75;5043163;28;20049;-76
2022/06/21 02:41:33;;;;;;;2.40;1.00;;;;;;;16.21;66.91;99631.13;5025309;28;20127;-75
2022/06/21 02:44:03;;;;;;;;;;;;;;;16.47;66.71;99622.53;5050124;28;20047;-76
2022/06/21 02:46:32;;;;;;;2.17;1.05;;;;;;;16.35;66.16;99631.19;5036812;28;19945;-76
2022/06/21 02:49:10;;;;;;;1.45;1.08;;;;;;;16.17;66.55;99627.81;5039101;28;20032;-77
2022/06/21 02:51:40;;;;;;;1.20;0.90;;;;;;;16.36;66.19;99632.91;5037421;28;20029;-76
2022/06/21 02:54:19;;;;;;;2.15;0.90;;;;;;;16.19;66.85;99627.69;5025190;28;20037;-75
2022/06/21 02:56:58;;;;;;;1.83;1.10;;;;;;;16.15;67.15;99626.16;5038668;28;20056;-76
2022/06/21 02:59:23;;;;;;;1.88;1.10;;;;;;;16.00;67.51;99630.56;5036792;28;20033;-77
2022/06/21 03:02:00;;;;;;;2.05;1.30;;;;;;;15.88;68.01;99632.09;5050619;28;20740;-76
2022/06/21 03:04:33;;;;;;;2.95;1.05;;;;;;;15.92;67.73;99628.31;5037420;28;20057;-76
2022/06/21 03:07:00;;;;;;;3.25;1.27;;;;;;;15.99;67.55;99626.16;5050569;28;20048;-76
2022/06/21 03:09:26;;;;;;;1.95;1.30;;;;;;;15.99;67.57;99632.31;5051919;28;20028;-76
2022/06/21 03:12:02;;;;;;;2.72;1.17;;;;;;;16.15;66.91;99621.72;5043589;28;20040;-76
2022/06/21 03:14:29;;;;;;;2.70;1.35;;;;;;;16.12;66.96;99621.06;5035352;28;20425;-74
2022/06/21 03:16:57;;;;;;;1.30;1.00;;;;;;;16.23;66.57;99618.63;5050051;28;20040;-75
2022/06/21 03:19:32;;;;;;;4.00;1.27;;;;;;;16.05;67.39;99615.25;5008027;28;20033;-75
2022/06/21 03:21:58;;;;;;;2.72;1.20;;;;;;;15.89;67.66;99615.25;5027630;28;20044;-76
2022/06/21 03:24:26;;;;;;;1.63;1.20;;;;;;;15.95;67.44;99606.94;5033753;28;20116;-76
2022/06/21 03:27:03;;;;;;;2.30;1.15;;;;;;;15.83;68.20;99614.72;5036963;28;20425;-76
2022/06/21 03:29:29;;;;;;;2.08;1.25;;;;;;;16.15;66.89;99621.72;5049069;28;20037;-76
2022/06/21 03:31:57;;;;;;;3.35;1.40;;;;;;;15.93;67.71;99622.09;5049092;28;20492;-78
2022/06/21 03:34:24;;;;;;;2.83;1.40;;;;;;;16.12;66.92;99619.25;5028542;28;20477;-76
2022/06/21 03:36:50;;;;;;;1.77;1.23;;;;;;;16.38;66.16;99620.41;5021141;28;20037;-78
2022/06/21 03:39:20;;;;;;;2.30;1.23;;;;;;;16.47;65.80;99624.31;5035774;28;20338;-78
2022/06/21 03:41:48;;;;;;;1.77;1.27;;;;;;;16.64;65.42;99618.06;5014780;28;20517;-74
2022/06/21 03:44:24;;;;;;;1.52;1.00;;;;;;;16.77;64.96;99618.22;5033538;28;20033;-75
2022/06/21 03:47:21;;;;;;;1.67;1.38;;;;;;;16.53;65.84;99621.34;5049384;28;20044;-76
2022/06/21 03:49:55;;;;;;;3.83;1.40;;;;;;;16.25;66.58;99622.91;5031565;28;20037;-74
2022/06/21 03:52:41;;;;;;;3.78;1.20;;;;;;;16.28;66.47;99627.19;5040720;28;20107;-75
2022/06/21 03:55:43;;;;;;;3.78;1.20;;;;;;;16.09;67.30;99623.88;5041754;28;20051;-75
2022/06/21 03:58:43;;;;;;;1.50;1.27;;;;;;;16.20;66.98;99626.78;5004596;28;20049;-74
2022/06/21 04:01:15;;;;;;;2.15;1.10;;;;;;;16.16;66.83;99625.25;5027693;28;20115;-74
2022/06/21 04:03:50;;;;;;;2.42;1.38;;;;;;;16.09;66.91;99632.69;5032383;28;20072;-76
2022/06/21 04:06:58;;;;;;;3.03;1.73;;;;;;;16.16;66.61;99627.91;5033488;28;20041;-76
2022/06/21 04:09:59;;;;;;;2.30;1.30;;;;;;;16.25;66.02;99637.97;4958656;28;20126;-75
2022/06/21 04:12:31;;;;;;;1.90;1.10;;;;;;;16.48;65.54;99640.16;5027178;28;20103;-77
2022/06/21 04:15:21;;;;;;;5.30;1.33;;;;;;;16.31;65.88;99642.06;5038189;28;20091;-73
2022/06/21 04:17:49;;;;;;;1.70;1.15;;;;;;;16.33;65.92;99641.03;5040994;28;20055;-74
2022/06/21 04:20:15;;;;;;;2.10;1.20;;;;;;;16.35;65.76;99651.53;5038343;28;20026;-74
2022/06/21 04:22:53;;;;;;;1.75;1.00;;;;;;;16.49;65.02;99641.00;5047400;28;20063;-74
2022/06/21 04:25:57;;;;;;;2.58;1.30;;;;;;;16.34;65.44;99642.75;5032623;28;20039;-78
2022/06/21 04:28:29;;;;;;;4.90;1.00;;;;;;;16.47;65.24;99648.19;5039333;28;20071;-73
2022/06/21 04:31:09;;;;;;;2.28;1.17;;;;;;;16.77;64.32;99650.91;5044216;28;20064;-73
2022/06/21 04:33:41;;;;;;;2.50;1.23;;;;;;;16.86;63.97;99639.75;5041510;28;20036;-74
2022/06/21 04:36:34;;;;;;;1.77;1.20;;;;;;;16.89;63.78;99652.84;5036579;28;20025;-73
2022/06/21 04:39:02;;;;;;;2.35;1.30;;;;;;;16.86;63.88;99663.63;5034681;28;20485;-74
2022/06/21 04:41:43;;;;;;;1.75;1.05;;;;;;;17.01;63.08;99659.22;5047011;28;20030;-76
2022/06/21 04:44:19;;;;;;;2.55;1.10;;;;;;;16.84;63.03;99656.72;5021741;28;20033;-75
2022/06/21 04:46:54;;;;;;;1.80;0.98;;;;;;;16.90;63.09;99661.66;5024929;28;20025;-74
2022/06/21 04:49:34;;;;;;;2.20;0.98;;;;;;;16.93;63.16;99659.66;5047304;28;20107;-75
2022/06/21 04:52:10;;;;;;;1.95;0.93;;;;;;;17.17;62.21;99667.13;5038310;28;20037;-76
2022/06/21 04:54:38;;;;;;;2.75;0.93;;;;;;;17.07;62.04;99676.56;5046737;28;20030;-76
2022/06/21 04:57:12;;;;;;;1.20;0.90;;;;;;;17.34;61.87;99671.41;5017590;28;20135;-74
2022/06/21 04:59:40;;;;;;;2.60;1.10;;;;;;;17.38;61.57;99675.56;5033514;28;20036;-76
2022/06/21 05:02:10;;;;;;;2.05;0.93;;;;;;;17.51;61.40;99663.25;5032701;28;20044;-76
2022/06/21 05:04:40;;;;;;;1.15;0.73;;;;;;;17.40;61.17;99666.56;5025261;28;20025;-76
2022/06/21 05:07:13;;;;;;;2.38;0.85;;;;;;;17.24;61.63;99665.81;5036993;28;20025;-74
2022/06/21 05:09:41;;;;;;;2.45;1.00;;;;;;;17.27;61.67;99667.41;5045417;28;20056;-76
2022/06/21 05:12:16;;;;;;;2.55;0.95;;;;;;;17.42;60.89;99669.13;5019422;28;20041;-77
2022/06/21 05:14:47;;;;;;;2.50;0.93;;;;;;;17.58;61.13;99653.09;5031645;28;20065;-74
2022/06/21 05:17:18;;;;;;;3.28;1.05;;;;;;;17.83;59.88;99653.28;5038240;28;20033;-75
2022/06/21 05:20:11;;;;;;;1.60;0.80;;;;;;;17.53;60.62;99655.19;5017114;28;20040;-75
2022/06/21 05:22:41;;;;;;;2.60;0.95;;;;;;;17.51;60.89;99662.41;5038303;28;20044;-77
2022/06/21 05:25:21;;;;;;;2.78;1.00;;;;;;;17.30;60.98;99670.72;5037652;28;20033;-75
2022/06/21 05:27:57;;;;;;;2.13;1.00;;;;;;;17.65;60.39;99662.41;5015411;28;20143;-76
2022/06/21 05:30:34;;;;;;;1.20;0.68;;;;;;;17.77;60.27;99669.63;5021484;28;20116;-75
2022/06/21 05:33:05;;;;;;;2.00;0.90;;;;;;;17.72;60.32;99671.72;5034788;28;20036;-74
2022/06/21 05:35:36;;;;;;;2.92;0.95;;;;;;;17.58;60.76;99677.84;5042031;28;20392;-74
2022/06/21 05:38:09;;;;;;;5.47;1.30;;;;;;;17.69;60.43;99672.75;5035895;28;20184;-75
2022/06/21 05:40:59;;;;;;;2.70;1.08;;;;;;;17.67;60.18;99666.69;5035436;28;20116;-75
2022/06/21 05:43:37;;;;;;;3.10;1.13;;;;;;;17.63;60.34;99664.28;5044907;28;20025;-77
2022/06/21 05:46:14;;;;;;;2.67;1.02;;;;;;;17.62;60.27;99662.59;5024261;28;20493;-76
2022/06/21 05:48:41;;;;;;;5.18;1.10;;;;;;;17.50;60.97;99672.16;5034689;28;20077;-67
2022/06/21 05:51:13;;;;;;;5.07;1.30;;;;;;;17.30;60.89;99681.34;5031057;28;20029;-76
2022/06/21 05:54:14;;;;;;;4.23;1.30;;;;;;;17.44;61.10;99678.72;5000522;28;20469;-76
2022/06/21 05:56:40;;;;;;;5.70;1.27;;;;;;;17.80;60.25;99668.59;4983012;28;20311;-76
2022/06/21 05:59:14;;;;;;;2.85;1.08;;;;;;;17.97;59.26;99676.38;5013255;28;20117;-75
2022/06/21 06:02:01;;;;;;;3.08;1.00;;;;;;;18.04;58.97;99668.88;5013040;28;20132;-76
2022/06/21 06:04:26;;;;;;;2.88;0.80;;;;;;;18.08;58.72;99673.03;4995937;28;20355;-75
2022/06/21 06:06:55;;;;;;;2.20;0.90;;;;;;;18.53;58.13;99673.66;5013228;28;20037;-75
2022/06/21 06:09:28;;;;;;;4.78;0.77;;;;;;;18.82;57.27;99667.28;4995600;28;20034;-75
2022/06/21 06:12:02;;;;;;;2.30;0.70;;;;;;;19.11;56.18;99665.34;4995603;28;20046;-75
2022/06/21 06:14:40;;;;;;;3.90;0.90;;;;;;;19.09;55.58;99675.22;5013227;28;20030;-76
2022/06/21 06:17:43;;;;;;;2.70;0.80;;;;;;;19.14;54.44;99673.09;5013259;28;20022;-75
2022/06/21 06:20:34;;;;;;;5.20;1.00;;;;;;;19.10;54.22;99681.38;5008760;28;20088;-75
2022/06/21 06:23:02;;;;;;;1.83;0.60;;;;;;;19.04;54.56;99697.78;4999187;28;20278;-76
2022/06/21 06:25:33;;;;;;;2.10;0.70;;;;;;;18.83;54.45;99692.97;4999833;28;20034;-75
2022/06/21 06:28:03;;;;;;;1.58;0.60;;;;;;;18.94;53.94;99701.06;5027351;28;20061;-74
2022/06/21 06:30:44;;;;;;;2.47;0.95;;;;;;;19.29;52.86;99702.31;5020182;28;20470;-77
2022/06/21 06:33:19;;;;;;;3.72;0.63;;;;;;;19.34;53.07;99697.50;5010353;28;20034;-69
2022/06/21 06:35:47;;;;;;;2.22;0.95;;;;;;;19.75;52.39;99708.00;5016615;28;20033;-73
2022/06/21 06:38:14;;;;;;;2.83;0.77;;;;;;;19.52;51.76;99722.88;5018520;28;20026;-73
2022/06/21 06:40:45;;;;;;;2.60;0.50;;;;;;;19.65;51.94;99717.59;5022093;28;20042;-74
2022/06/21 06:43:21;;;;;;;6.00;0.95;;;;;;;19.48;52.33;99723.22;5021379;28;20436;-75
2022/06/21 06:45:51;;;;;;;3.53;0.60;;;;;;;18.79;53.56;99720.72;5021982;28;20029;-75
2022/06/21 06:48:24;;;;;;;2.38;0.77;;;;;;;18.91;52.59;99709.28;5020564;28;20058;-74
2022/06/21 06:50:54;;;;;;;;;;;;;;;18.64;53.17;99732.34;5012011;28;20108;-75
2022/06/21 06:53:34;;;;;;;2.03;0.68;;;;;;;18.95;52.66;99729.41;5026255;28;20280;-75
2022/06/21 06:56:16;;;;;;;3.05;0.95;;;;;;;18.70;52.65;99734.63;5036945;28;20548;-67
2022/06/21 06:58:48;;;;;;;2.85;0.60;;;;;;;18.77;54.10;99741.25;5041371;28;20075;-73
2022/06/21 07:01:19;;;;;;;2.10;0.70;;;;;;;18.38;54.61;99747.31;5013551;28;20040;-73
2022/06/21 07:03:49;;;;;;;2.70;0.50;;;;;;;18.82;54.15;99752.44;5039436;28;20064;-74
2022/06/21 07:06:39;;;;;;;3.25;0.68;;;;;;;18.83;53.66;99745.31;5018034;28;20083;-72
2022/06/21 07:09:24;;;;;;;2.22;0.57;;;;;;;18.26;53.67;99766.72;5016559;28;20041;-74
2022/06/21 07:11:59;;;;;;;4.30;0.80;;;;;;;17.81;55.07;99755.34;5029899;28;20040;-74
2022/06/21 07:14:27;;;;;;;3.75;0.77;;;;;;;17.92;54.83;99761.69;5025324;28;20361;-73
2022/06/21 07:16:58;;;;;;;2.45;0.68;;;;;;;17.91;54.43;99770.63;5035593;28;20041;-73
2022/06/21 07:19:24;;;;;;;1.80;0.60;;;;;;;17.83;54.17;99764.91;5023006;28;20028;-72
2022/06/21 07:21:49;;;;;;;2.38;0.50;;;;;;;18.25;54.13;99762.34;5023034;28;20162;-74
2022/06/21 07:24:17;;;;;;;3.75;0.60;;;;;;;18.11;53.70;99780.03;5036171;28;20029;-74
2022/06/21 07:26:55;;;;;;;1.88;0.50;;;;;;;18.33;54.34;99774.19;5048469;28;20039;-72
2022/06/21 07:29:28;;;;;;;0.95;0.40;;;;;;;18.08;54.14;99776.69;5032136;28;20112;-73
2022/06/21 07:31:56;;;;;;;5.63;0.68;;;;;;;18.10;54.21;99780.09;5035707;28;20082;-73
2022/06/21 07:34:30;;;;;;;2.30;0.80;;;;;;;18.41;53.68;99787.00;5042944;28;20061;-73
2022/06/21 07:37:11;;;;;;;2.85;0.50;;;;;;;18.24;54.74;99764.16;5040624;28;20048;-74
2022/06/21 07:39:43;;;;;;;3.08;0.70;;;;;;;18.59;55.10;99763.69;5032411;28;20052;-74
2022/06/21 07:42:15;;;;;;;1.33;0.60;;;;;;;18.26;58.15;99778.19;5030131;28;20036;-73
2022/06/21 07:45:00;;;;;;;2.83;0.80;;;;;;;18.28;59.96;99802.91;5035077;28;20064;-72
2022/06/21 07:47:35;;;;;;;2.30;0.60;;;;;;;18.05;59.28;99803.47;5032150;28;20036;-73
2022/06/21 07:50:17;;;;;;;3.95;0.60;;;;;;;18.12;58.45;99807.47;5034726;28;20056;-74
2022/06/21 07:52:59;;;;;;;1.23;0.60;;;;;;;18.59;57.36;99801.81;5031296;28;20042;-73
2022/06/21 07:55:35;;;;;;;2.15;0.68;;;;;;;18.90;56.41;99800.69;5016007;28;20120;-74
2022/06/21 07:58:22;;;;;;;2.25;0.95;;;;;;;19.01;57.14;99807.16;5033149;28;20405;-73
2022/06/21 08:06:41;;;;;;;3.78;1.63;;;;;;;19.44;55.92;99808.66;5045201;28;20142;-74
2022/06/21 08:09:26;;;;;;;;;;;;;;;19.40;55.67;99815.16;5024042;28;20530;-73
2022/06/21 08:11:55;;;;;;;3.13;1.27;;;;;;;19.75;55.37;99809.28;5042867;28;19921;-74
2022/06/21 08:14:21;;;;;;;2.72;1.33;;;;;;;19.98;54.82;99810.34;5014062;28;20030;-72
2022/06/21 08:16:55;;;;;;;3.78;1.10;;;;;;;19.15;55.79;99825.72;5021219;28;20041;-73
2022/06/21 08:19:29;;;;;;;1.27;0.50;;;;;;;19.67;55.31;99806.28;5031742;28;20917;-71
2022/06/21 08:22:01;;;;;;;3.45;0.90;;;;;;;19.78;54.25;99809.06;5037374;28;20091;-73
2022/06/21 08:24:50;;;;;;;4.28;0.80;;;;;;;19.47;54.24;99825.38;5031007;28;20029;-73
2022/06/21 08:27:22;;;;;;;2.42;0.70;;;;;;;20.02;53.49;99810.97;5036765;28;20022;-74
2022/06/21 08:30:12;;;;;;;4.88;0.88;;;;;;;19.99;53.60;99830.72;5034480;28;20107;-74
2022/06/21 08:32:43;;;;;;;2.97;0.63;;;;;;;20.03;53.05;99813.56;5029141;28;20499;-73
2022/06/21 08:35:17;;;;;;;1.60;0.60;;;;;;;20.45;52.20;99807.97;5026069;28;20485;-72
2022/06/21 08:37:52;;;;;;;2.90;0.98;;;;;;;20.14;51.54;99815.44;5032933;28;20473;-74
2022/06/21 08:40:59;;;;;;;3.67;0.88;;;;;;;20.56;51.17;99816.09;5023844;28;20116;-72
2022/06/21 08:43:46;;;;;;;4.30;0.80;;;;;;;20.60;51.39;99818.41;4949670;28;20041;-71
2022/06/21 08:46:47;;;;;;;2.47;0.90;;;;;;;20.83;49.68;99819.41;5029304;28;20485;-71
2022/06/21 08:49:30;;;;;;;4.93;0.70;;;;;;;21.18;49.26;99823.97;4994941;28;20046;-73
2022/06/21 08:52:20;;;;;;;3.58;0.73;;;;;;;20.84;49.04;99829.13;5030400;28;20033;-72
2022/06/21 08:54:51;;;;;;;3.22;0.90;;;;;;;20.37;49.32;99845.84;5020428;28;20465;-72
2022/06/21 08:57:26;;;;;;;4.28;0.77;;;;;;;20.46;50.58;99860.34;5030895;28;20029;-73
2022/06/21 09:00:08;;;;;;;2.83;0.90;;;;;;;19.91;50.61;99846.41;5031483;28;20041;-72
2022/06/21 09:03:07;;;;;;;2.35;0.98;;;;;;;20.39;51.35;99827.94;5039251;28;20670;-74
2022/06/21 09:06:11;;;;;;;3.88;0.82;;;;;;;20.65;51.11;99821.59;5034121;28;20029;-74
2022/06/21 09:08:42;;;;;;;;;;;;;;;21.02;50.24;99818.06;5000419;28;20041;-74
2022/06/21 09:11:48;;;;;;;3.13;0.88;;;;;;;20.52;49.37;99857.28;5032762;28;19913;-74
2022/06/21 09:14:42;;;;;;;1.73;0.68;;;;;;;20.28;49.38;99827.84;5019844;28;20168;-71
2022/06/21 09:17:21;;;;;;;1.58;0.60;;;;;;;20.51;49.77;99820.91;4992242;28;20066;-71
2022/06/21 09:20:15;;;;;;;1.83;0.70;;;;;;;21.34;49.18;99818.34;5025165;28;20531;-74
2022/06/21 09:22:53;;;;;;;1.60;0.60;;;;;;;21.09;49.20;99835.34;5012819;28;20025;-73
2022/06/21 09:25:30;;;;;;;1.92;0.50;;;;;;;21.74;47.88;99824.19;5032277;28;20033;-71
2022/06/21 09:28:09;;;;;;;1.63;0.82;;;;;;;22.01;46.64;99818.53;5029163;28;20382;-72
2022/06/21 09:30:50;;;;;;;1.55;0.70;;;;;;;22.62;45.05;99812.84;5031399;28;20037;-73
2022/06/21 09:33:42;;;;;;;2.60;0.73;;;;;;;22.13;43.24;99839.00;5030269;28;20065;-73
2022/06/21 09:36:45;;;;;;;2.53;0.65;;;;;;;21.78;41.37;99839.06;5012077;28;20033;-72
2022/06/21 09:39:13;;;;;;;3.50;0.57;;;;;;;21.88;44.20;99844.53;4984977;28;20063;-72
2022/06/21 09:41:46;;;;;;;1.13;0.60;;;;;;;21.68;45.99;99855.91;5010339;28;20088;-71
2022/06/21 09:44:25;;;;;;;3.55;0.70;;;;;;;21.97;46.83;99856.34;5027901;28;20061;-74
2022/06/21 09:47:08;;;;;;;3.67;0.57;;;;;;;21.67;45.96;99841.69;5026128;28;20469;-69
2022/06/21 09:49:45;;;;;;;;;;;;;;;21.61;46.65;99848.34;5025104;28;20068;-74
2022/06/21 09:52:23;;;;;;;2.60;0.60;;;;;;;22.13;45.52;99859.56;5000558;28;20055;-68
2022/06/21 09:55:06;;;;;;;1.88;0.60;;;;;;;22.73;44.12;99853.00;5032105;28;20071;-69
2022/06/21 09:57:42;;;;;;;1.95;0.50;;;;;;;21.52;39.42;99901.66;5030891;28;20044;-74
2022/06/21 10:00:30;;;;;;;1.55;0.60;;;;;;;21.78;41.44;99849.75;5017970;28;20409;-76
2022/06/21 10:03:01;;;;;;;4.60;0.50;;;;;;;22.00;40.62;99861.47;5024098;28;20439;-74
2022/06/21 10:05:39;;;;;;;2.63;0.50;;;;;;;22.29;41.22;99868.09;5036188;28;20064;-69
2022/06/21 10:08:59;;;;;;;2.33;0.70;;;;;;;22.44;40.35;99858.00;5040792;28;20453;-73
2022/06/21 10:11:53;;;;;;;1.23;0.35;;;;;;;22.69;40.96;99866.75;4936898;29;20523;-72
2022/06/21 10:14:19;;;;;;;3.33;0.50;;;;;;;22.29;42.18;99865.41;5050525;28;20029;-75
2022/06/21 10:17:08;;;;;;;3.28;0.60;;;;;;;21.79;42.41;99877.34;5014590;28;20038;-72
2022/06/21 10:20:00;;;;;;;1.75;0.52;;;;;;;21.81;42.61;99897.63;5030008;28;20037;-74
2022/06/21 10:22:35;;;;;;;4.28;0.60;;;;;;;21.62;44.85;99886.63;5009985;28;20049;-74
2022/06/21 10:25:42;;;;;;;3.55;0.50;;;;;;;21.95;44.78;99882.38;5034587;28;20033;-72
2022/06/21 10:28:10;;;;;;;1.50;0.57;;;;;;;21.86;45.51;99907.97;5024262;28;20065;-72
2022/06/21 10:30:51;;;;;;;4.30;0.82;;;;;;;22.05;46.23;99881.53;5014394;28;20493;-73
2022/06/21 10:33:38;;;;;;;2.47;0.70;;;;;;;22.52;45.00;99898.41;5020693;28;20537;-71
2022/06/21 10:36:07;;;;;;;1.75;0.70;;;;;;;22.37;45.44;99900.47;5039479;28;20049;-76
2022/06/21 10:39:10;;;;;;;2.60;0.70;;;;;;;22.33;46.35;99885.63;5039974;28;20029;-76
2022/06/21 10:41:35;;;;;;;2.22;0.63;;;;;;;21.96;44.15;99892.09;4944093;28;20041;-75
2022/06/21 10:44:32;;;;;;;3.53;0.80;;;;;;;22.16;43.22;99896.78;5028353;28;20399;-75
2022/06/21 10:47:03;;;;;;;2.00;0.60;;;;;;;21.76;43.54;99909.66;5008477;28;20033;-74
2022/06/21 10:49:37;;;;;;;2.35;0.55;;;;;;;21.70;45.88;99904.75;5036978;28;20025;-74
2022/06/21 10:52:12;;;;;;;4.78;0.82;;;;;;;21.89;45.60;99900.56;5050342;28;20367;-74
2022/06/21 10:54:51;;;;;;;4.55;1.05;;;;;;;22.06;45.83;99909.13;5034384;28;20045;-75
2022/06/21 10:58:01;;;;;;;3.67;0.80;;;;;;;22.35;45.10;99907.78;5038447;28;20052;-72
2022/06/21 11:03:55;;;;;;;2.63;0.70;;;;;;;22.85;44.59;99932.34;5024737;28;20044;-74
2022/06/21 11:06:47;;;;;;;1.85;0.68;;;;;;;23.39;44.28;99925.38;5043280;28;20133;-74
2022/06/21 11:09:24;;;;;;;1.20;0.65;;;;;;;23.42;43.15;99910.84;5036550;28;20045;-74
2022/06/21 11:15:06;;;;;;;2.20;0.45;;;;;;;23.06;43.21;99945.91;5046342;28;20063;-72
2022/06/21 11:17:47;;;;;;;2.22;0.60;;;;;;;22.71;43.74;99970.13;5048235;28;20029;-75
2022/06/21 11:20:20;;;;;;;3.28;0.60;;;;;;;22.88;43.42;99941.97;5032624;28;20027;-75
2022/06/21 11:23:04;;;;;;;1.85;0.65;;;;;;;23.34;42.59;99927.59;5042555;28;20100;-74
2022/06/21 11:25:42;;;;;;;1.10;0.55;;;;;;;23.17;42.27;99938.81;5034115;28;20033;-73
2022/06/21 11:28:39;;;;;;;1.13;0.40;;;;;;;23.13;42.07;99934.69;5018534;28;20033;-73
2022/06/21 11:31:27;;;;;;;2.20;0.40;;;;;;;23.20;42.22;99926.03;5038325;28;20051;-74
2022/06/21 11:34:17;;;;;;;1.33;0.73;;;;;;;23.94;41.11;99920.81;5032857;28;20489;-72
2022/06/21 11:37:01;;;;;;;1.58;0.70;;;;;;;23.73;41.15;99930.66;5031851;28;20097;-72
2022/06/21 11:40:08;;;;;;;1.83;0.88;;;;;;;22.82;39.62;99932.63;5032618;28;20113;-75
2022/06/21 11:42:49;;;;;;;2.30;0.60;;;;;;;23.64;41.33;99924.19;5027192;28;20087;-75
2022/06/21 11:45:27;;;;;;;1.00;0.52;;;;;;;23.23;40.85;99939.19;5031489;28;20039;-73
2022/06/21 11:48:27;;;;;;;2.30;0.60;;;;;;;23.31;40.75;99925.16;5039265;28;20063;-72
2022/06/21 11:50:55;;;;;;;1.15;0.40;;;;;;;23.41;41.36;99933.28;5036581;28;20045;-72
2022/06/21 11:53:35;;;;;;;1.95;0.47;;;;;;;23.04;42.01;99955.03;5036469;28;20068;-74
2022/06/21 11:56:18;;;;;;;3.03;0.32;;;;;;;23.00;41.30;99957.09;5032645;28;20052;-75
2022/06/21 11:58:52;;;;;;;1.00;0.40;;;;;;;22.51;41.23;99962.78;5032207;28;20025;-72
2022/06/21 12:01:31;;;;;;;3.45;0.40;;;;;;;22.78;42.01;99962.44;5033619;28;20059;-72
2022/06/21 12:04:06;;;;;;;3.47;0.40;;;;;;;22.95;42.55;99959.31;5033507;28;20033;-71
2022/06/21 12:06:38;;;;;;;2.85;0.70;;;;;;;22.86;42.91;99952.84;5033762;28;20056;-71
2022/06/21 12:09:32;;;;;;;0.80;0.50;;;;;;;23.01;41.84;99960.63;5033378;28;20117;-70
2022/06/21 12:12:25;;;;;;;1.23;0.55;;;;;;;23.18;42.98;99944.06;5032877;28;20037;-72
2022/06/21 12:15:05;;;;;;;1.88;0.50;;;;;;;23.70;42.51;99955.91;5053103;28;20087;-73
2022/06/21 12:17:54;;;;;;;2.15;0.40;;;;;;;23.63;40.50;99972.59;5046105;28;20026;-74
2022/06/21 12:20:41;;;;;;;1.50;0.50;;;;;;;23.48;40.01;99972.88;5033028;28;20087;-72
2022/06/21 12:23:16;;;;;;;2.47;0.43;;;;;;;23.17;41.77;99979.88;5040572;28;20029;-74
2022/06/21 12:25:41;;;;;;;2.75;0.45;;;;;;;23.17;41.64;99963.78;5041633;28;20044;-74
2022/06/21 12:28:35;;;;;;;1.33;0.57;;;;;;;23.34;40.69;99970.47;5005189;28;20037;-73
2022/06/21 12:31:12;;;;;;;5.40;0.65;;;;;;;23.15;41.16;99979.16;5044739;28;20040;-74
2022/06/21 12:33:39;;;;;;;1.83;0.40;;;;;;;23.16;41.65;99988.03;5030881;28;20116;-73
2022/06/21 12:36:13;;;;;;;2.85;0.50;;;;;;;23.08;42.18;99984.13;5036833;28;20045;-75